Garden Spring, Nevada Weather observations

Data are for 10 minute period ending at time listed.
 Day   Time    Ave.   Ave.  Ave.  Vector   Max.   Stn.    Total    Solar   Ave.  
  of    of     Air    Rel.  Wind   Wind    Wind   Baro.  Precip.   Rad.    Soil  
Year   Day     Temp.  Hum.  Speed  Dir.    Gust   Pres.                    Temp. 
2015   (PST)    F      %     mph   deg.    mph     mb.     in.     W/m2     F    
--------------------------------------------------------------------------------- 
  62   15:00   35.5    90    6.2   318     19.7   846.1    0.03     192    42.1  
  62   16:00   40.4    77    3.7   314     14.3   845.8    0.06     319    42.1  
  62   17:00   38.6    77    3.8   311      8.4   846.2    0.01      52    42.3  
  62   18:00   37.6    72    3.8   315      8.6   846.9    0.00       8    42.5  
  62   19:00   35.7    64    4.6   325     13.4   847.4    0.00       0    42.2  
  62   20:00   33.6    75    5.3   339     10.9   848.1    0.00       0    41.7  
  62   21:00   31.8    78    3.7   356     11.1   848.8    0.00       0    41.1  
  62   22:00   31.5    76    3.8    18     10.8   849.3    0.00       0    40.6  
  62   23:00   31.2    74    2.7    66      9.2   849.8    0.00       0    40.0  
  63    0:00   29.0    79    2.5   263      6.2   850.2    0.00       0    39.5  
  63    1:00   29.7    68    3.2   246      8.4   850.3    0.00       0    39.2  
  63    2:00   28.2    70    3.5   261      7.9   850.5    0.00       0    38.9  
  63    3:00   28.6    64    3.6   288      9.6   850.6    0.00       0    38.7  
  63    4:00   27.4    66    3.8   264      9.0   850.6    0.00       0    38.4  
  63    5:00   27.7    62    4.1   262      9.6   850.8    0.00       0    38.2  
  63    6:00   27.5    61    3.7   256      7.7   851.5    0.00       0    38.0  
  63    7:00   29.6    59    3.5   267      7.6   852.2    0.00      63    38.0  
  63    8:00   36.0    43    3.9    75     14.1   853.1    0.00     260    38.4  
  63    9:00   37.9    40    4.5   124     13.8   854.0    0.00     459    38.2  
  63   10:00   40.7    37    4.2    52     13.2   854.4    0.00     625    37.8  
  63   11:00   41.7    36    6.5    40     15.7   854.7    0.00     743    37.9  
  63   12:00   43.0    37    6.6    47     14.6   854.8    0.00     799    39.6  
  63   13:00   45.0    38    6.7   356     18.7   854.7    0.00     786    41.7  
  63   14:00   46.2    37    7.4   342     17.2   854.6    0.00     710    43.9  

Return to Garden Spring, Nevada graphs page.


Western Regional Climate Center,wrcc@dri.edu